Time;durP1;ratioP1;P1;durP2;ratioP2;P2;SDS_P1;SDS_P2;PMS_P1;PMS_P2;Temp;Humidity;BMP_temperature;BMP_pressure;BME280_temperature;BME280_humidity;BME280_pressure;Samples;Min_cycle;Max_cycle;Signal;HPM_P1;HPM_P2
2022/01/16 00:01:03;;;;;;;99.25;39.13;;;2.50;99.90;;;;;;5089919;28;20051;-40
2022/01/16 00:06:13;;;;;;;106.53;38.72;;;2.10;99.90;;;;;;5090629;28;20047;-40
2022/01/16 00:08:39;;;;;;;104.95;38.55;;;2.00;99.90;;;;;;5090238;28;20060;-40
2022/01/16 00:11:05;;;;;;;108.82;41.83;;;2.10;99.90;;;;;;5090338;28;20052;-40
2022/01/16 00:13:31;;;;;;;109.25;42.88;;;2.00;99.90;;;;;;5090373;28;20067;-40
2022/01/16 00:15:57;;;;;;;114.15;42.85;;;2.00;99.90;;;;;;5089975;28;20078;-40
2022/01/16 00:18:26;;;;;;;112.93;41.53;;;2.10;99.90;;;;;;5089905;28;20083;-41
2022/01/16 00:20:52;;;;;;;114.78;40.83;;;2.10;99.90;;;;;;5090190;28;20059;-40
2022/01/16 00:23:26;;;;;;;111.80;41.55;;;1.90;99.90;;;;;;5088859;28;20043;-40
2022/01/16 00:25:53;;;;;;;117.50;42.33;;;1.90;99.90;;;;;;5090016;28;20044;-41
2022/01/16 00:28:20;;;;;;;119.25;42.13;;;2.00;99.90;;;;;;5090323;28;20060;-41
2022/01/16 00:30:46;;;;;;;116.32;37.83;;;1.90;99.90;;;;;;5089880;28;20055;-40
2022/01/16 00:33:12;;;;;;;105.53;39.80;;;2.00;99.90;;;;;;5090337;28;20401;-41
2022/01/16 00:35:38;;;;;;;112.90;39.60;;;2.10;99.90;;;;;;5089891;28;20044;-41
2022/01/16 00:38:05;;;;;;;108.85;39.35;;;1.90;99.90;;;;;;5087299;28;20612;-40
2022/01/16 00:40:31;;;;;;;111.95;38.58;;;1.80;99.90;;;;;;5090177;28;20050;-40
2022/01/16 00:42:57;;;;;;;114.60;39.97;;;1.70;99.90;;;;;;5089881;28;20044;-40
2022/01/16 00:45:23;;;;;;;110.57;37.10;;;1.80;99.90;;;;;;5089953;28;20490;-40
2022/01/16 00:47:49;;;;;;;109.25;37.53;;;1.90;99.90;;;;;;5090063;28;20123;-40
2022/01/16 00:50:15;;;;;;;110.15;36.70;;;1.60;99.90;;;;;;5090281;28;20123;-40
2022/01/16 00:52:41;;;;;;;120.95;39.75;;;1.80;99.90;;;;;;5089822;28;20036;-40
2022/01/16 00:55:07;;;;;;;113.07;38.45;;;1.90;99.90;;;;;;5090055;28;20454;-40
2022/01/16 00:57:33;;;;;;;108.65;35.33;;;1.60;99.90;;;;;;5089845;28;20494;-40
2022/01/16 00:59:59;;;;;;;119.32;34.72;;;1.70;99.90;;;;;;5091994;28;20105;-40
2022/01/16 01:02:25;;;;;;;108.38;37.72;;;1.80;99.90;;;;;;5093252;28;20139;-40
2022/01/16 01:04:51;;;;;;;116.93;40.10;;;1.70;99.90;;;;;;5093102;28;20040;-41
2022/01/16 01:07:18;;;;;;;120.47;37.53;;;1.70;99.90;;;;;;5093297;28;20123;-40
2022/01/16 01:09:44;;;;;;;117.85;40.53;;;1.60;99.90;;;;;;5093303;28;20048;-40
2022/01/16 01:12:19;;;;;;;109.07;38.88;;;1.60;99.90;;;;;;5093229;28;20086;-40
2022/01/16 01:15:04;;;;;;;118.82;39.88;;;1.50;99.90;;;;;;5091589;28;20123;-41
2022/01/16 01:17:35;;;;;;;117.88;38.22;;;1.50;99.90;;;;;;5093369;28;20040;-40
2022/01/16 01:20:00;;;;;;;109.10;36.17;;;1.50;99.90;;;;;;5093115;28;20048;-40
2022/01/16 01:22:26;;;;;;;128.45;39.17;;;1.40;99.90;;;;;;5093105;28;20389;-41
2022/01/16 01:24:52;;;;;;;105.93;39.63;;;1.50;99.90;;;;;;5092777;28;20046;-40
2022/01/16 01:27:23;;;;;;;104.88;37.85;;;1.50;99.90;;;;;;5093131;28;20036;-40
2022/01/16 01:29:58;;;;;;;112.35;39.28;;;1.40;99.90;;;;;;5092840;28;20055;-40
2022/01/16 01:32:24;;;;;;;116.15;40.35;;;1.80;99.90;;;;;;5092963;28;20052;-40
2022/01/16 01:34:50;;;;;;;97.78;36.58;;;1.50;99.90;;;;;;5092886;28;20042;-40
2022/01/16 01:37:16;;;;;;;106.53;37.92;;;1.50;99.90;;;;;;5091695;28;20040;-41
2022/01/16 01:39:41;;;;;;;100.18;36.33;;;1.30;99.90;;;;;;5091686;28;20048;-40
2022/01/16 01:42:10;;;;;;;94.55;35.78;;;1.40;99.90;;;;;;5092463;28;20044;-40
2022/01/16 01:52:53;;;;;;;110.38;37.42;;;1.10;99.90;;;;;;5092716;28;20075;-40
2022/01/16 01:55:20;;;;;;;88.03;32.28;;;1.30;99.90;;;;;;5092679;28;20665;-40
2022/01/16 01:57:46;;;;;;;93.20;33.58;;;1.20;99.90;;;;;;5092392;28;20046;-40
2022/01/16 02:00:17;;;;;;;86.15;32.90;;;1.40;99.90;;;;;;5092353;28;20409;-39
2022/01/16 02:03:42;;;;;;;94.67;34.57;;;1.10;99.90;;;;;;5092445;28;20044;-40
2022/01/16 02:05:37;;;;;;;92.85;34.88;;;1.20;99.90;;;;;;5083894;28;20044;-40
2022/01/16 02:08:06;;;;;;;104.03;36.72;;;1.10;99.90;;;;;;5092091;28;20136;-40
2022/01/16 02:10:35;;;;;;;107.60;37.50;;;1.00;99.90;;;;;;5092405;28;20382;-40
2022/01/16 02:13:04;;;;;;;115.50;37.03;;;1.10;99.90;;;;;;5092024;28;20113;-40
2022/01/16 02:31:58;;;;;;;123.40;38.70;;;1.10;99.90;;;;;;5092147;28;20043;-40
2022/01/16 02:34:41;;;;;;;139.35;45.30;;;1.20;99.90;;;;;;5091820;28;20104;-40
2022/01/16 02:37:10;;;;;;;136.38;39.70;;;1.00;99.90;;;;;;5091527;28;20040;-39
2022/01/16 02:39:41;;;;;;;132.75;41.55;;;1.20;99.90;;;;;;5089681;28;20032;-39
2022/01/16 02:42:10;;;;;;;158.50;45.05;;;1.10;99.90;;;;;;5091168;28;20044;-40
2022/01/16 02:44:48;;;;;;;163.75;46.08;;;1.00;99.90;;;;;;5091666;28;20044;-40
2022/01/16 02:47:18;;;;;;;149.13;43.92;;;1.30;99.90;;;;;;5091366;28;20036;-39
2022/01/16 02:49:47;;;;;;;173.13;47.33;;;1.20;99.90;;;;;;5091367;28;20040;-42
2022/01/16 02:52:16;;;;;;;160.02;47.20;;;1.20;99.90;;;;;;5091038;28;20472;-40
2022/01/16 02:54:45;;;;;;;197.82;49.45;;;1.30;99.90;;;;;;5091183;28;20078;-40
2022/01/16 02:57:15;;;;;;;182.57;49.22;;;1.30;99.90;;;;;;5090936;28;20100;-40
2022/01/16 02:59:48;;;;;;;190.95;50.58;;;1.20;99.90;;;;;;5091075;28;20109;-40
2022/01/16 03:02:14;;;;;;;203.75;51.00;;;1.60;99.90;;;;;;5089463;28;20531;-40
2022/01/16 03:04:40;;;;;;;218.40;50.88;;;1.30;99.90;;;;;;5091268;28;20085;-40
2022/01/16 03:07:06;;;;;;;228.75;51.65;;;1.20;99.90;;;;;;5090892;28;20044;-40
2022/01/16 03:12:16;;;;;;;210.70;54.30;;;1.30;99.90;;;;;;5090862;28;20051;-40
2022/01/16 03:14:42;;;;;;;204.77;50.88;;;1.20;99.90;;;;;;5091152;28;20036;-40
2022/01/16 03:17:09;;;;;;;237.27;57.40;;;1.30;99.90;;;;;;5090624;28;20038;-40
2022/01/16 03:22:19;;;;;;;241.30;52.65;;;1.40;99.90;;;;;;5090530;28;20051;-40
2022/01/16 03:24:46;;;;;;;264.27;56.10;;;1.40;99.90;;;;;;5090954;28;20457;-40
2022/01/16 03:27:17;;;;;;;271.40;57.00;;;1.30;99.90;;;;;;5090764;28;20036;-39
2022/01/16 03:29:48;;;;;;;263.13;53.53;;;1.30;99.90;;;;;;5089203;28;20459;-40
2022/01/16 03:32:17;;;;;;;298.55;57.28;;;1.30;99.90;;;;;;5090515;28;20412;-39
2022/01/16 03:34:43;;;;;;;250.48;56.55;;;1.40;99.90;;;;;;5090926;28;20043;-40
2022/01/16 03:37:09;;;;;;;292.80;54.75;;;1.50;99.90;;;;;;5090730;28;20044;-41
2022/01/16 03:39:35;;;;;;;293.33;54.97;;;1.30;99.90;;;;;;5088594;28;20097;-40
2022/01/16 03:42:02;;;;;;;269.05;53.53;;;1.50;99.90;;;;;;5090197;28;20574;-40
2022/01/16 03:44:29;;;;;;;332.30;59.35;;;1.40;99.90;;;;;;5090854;28;20047;-40
2022/01/16 03:46:55;;;;;;;295.27;58.55;;;1.50;99.90;;;;;;5090395;28;20075;-40
2022/01/16 03:49:27;;;;;;;283.65;54.45;;;1.40;99.90;;;;;;5090407;28;20068;-39
2022/01/16 03:51:54;;;;;;;318.10;56.25;;;1.40;99.90;;;;;;5090488;28;20032;-40
2022/01/16 03:54:22;;;;;;;290.02;57.05;;;1.40;99.90;;;;;;5090058;28;20036;-40
2022/01/16 03:56:49;;;;;;;268.60;51.33;;;1.50;99.90;;;;;;5090473;28;20078;-40
2022/01/16 03:59:15;;;;;;;289.83;55.35;;;1.50;99.90;;;;;;5090047;28;20123;-40
2022/01/16 04:01:41;;;;;;;278.02;53.70;;;1.50;99.90;;;;;;5090681;28;20036;-40
2022/01/16 04:04:07;;;;;;;293.13;55.25;;;1.50;99.90;;;;;;5090185;28;20036;-40
2022/01/16 04:06:33;;;;;;;288.75;56.40;;;1.60;99.90;;;;;;5090440;28;20397;-40
2022/01/16 04:09:00;;;;;;;294.63;54.47;;;1.60;99.90;;;;;;5090239;28;20514;-40
2022/01/16 04:11:28;;;;;;;307.17;57.17;;;1.80;99.90;;;;;;5090490;28;20040;-40
2022/01/16 04:14:04;;;;;;;294.30;55.80;;;1.60;99.90;;;;;;5090400;28;20032;-40
2022/01/16 04:16:30;;;;;;;270.88;54.20;;;1.50;99.90;;;;;;5090404;28;20101;-40
2022/01/16 04:18:56;;;;;;;240.77;52.75;;;1.60;99.90;;;;;;5090469;28;20094;-40
2022/01/16 04:21:25;;;;;;;262.88;54.85;;;1.50;99.90;;;;;;5090401;28;20032;-40
2022/01/16 04:23:51;;;;;;;266.38;53.70;;;1.60;99.90;;;;;;5090542;28;20032;-40
2022/01/16 04:26:18;;;;;;;328.73;55.35;;;1.60;99.90;;;;;;5089892;28;20044;-39
2022/01/16 04:28:46;;;;;;;283.48;55.67;;;1.60;99.90;;;;;;5089958;28;20043;-39
2022/01/16 04:31:16;;;;;;;262.00;51.08;;;1.60;99.90;;;;;;5090075;28;20056;-40
2022/01/16 04:33:42;;;;;;;287.15;53.05;;;1.50;99.90;;;;;;5090874;28;20405;-40
2022/01/16 04:36:09;;;;;;;284.70;54.90;;;1.60;99.90;;;;;;5094021;28;20374;-39
2022/01/16 04:38:38;;;;;;;272.90;53.25;;;1.60;99.90;;;;;;5091380;28;20555;-40
2022/01/16 04:43:51;;;;;;;266.83;52.00;;;2.00;99.90;;;;;;5094055;28;20394;-39
2022/01/16 04:46:18;;;;;;;264.25;52.00;;;1.80;99.90;;;;;;5093665;28;20071;-39
2022/01/16 04:48:44;;;;;;;332.77;60.33;;;1.80;99.90;;;;;;5093634;28;20039;-40
2022/01/16 04:51:11;;;;;;;334.23;60.53;;;1.80;99.90;;;;;;5093707;28;20048;-40
2022/01/16 04:53:37;;;;;;;268.98;54.70;;;1.80;99.90;;;;;;5093737;28;20044;-40
2022/01/16 04:56:03;;;;;;;294.00;58.67;;;1.90;99.90;;;;;;5093944;28;20039;-40
2022/01/16 04:58:29;;;;;;;261.45;55.20;;;1.70;99.90;;;;;;5093298;28;20059;-39
2022/01/16 05:00:55;;;;;;;293.95;58.92;;;1.90;99.90;;;;;;5093626;28;20036;-41
2022/01/16 05:03:25;;;;;;;275.30;55.65;;;1.90;99.90;;;;;;5093149;28;20387;-39
2022/01/16 05:05:51;;;;;;;278.70;56.60;;;1.90;99.90;;;;;;5093284;28;20043;-39
2022/01/16 05:08:17;;;;;;;277.27;55.13;;;1.90;99.90;;;;;;5093033;28;20087;-39
2022/01/16 05:10:43;;;;;;;304.23;61.45;;;2.00;99.90;;;;;;5093409;28;20523;-40
2022/01/16 05:18:31;;;;;;;328.83;61.35;;;2.00;99.90;;;;;;5093112;28;20048;-40
2022/01/16 05:20:57;;;;;;;304.75;60.20;;;1.90;99.90;;;;;;5092955;28;20063;-40
2022/01/16 05:23:23;;;;;;;294.52;60.40;;;2.10;99.90;;;;;;5092933;28;20036;-40
2022/01/16 05:25:48;;;;;;;295.88;58.95;;;2.10;99.90;;;;;;5093184;28;20036;-39
2022/01/16 05:28:14;;;;;;;289.13;59.50;;;2.30;99.90;;;;;;5092976;28;20052;-39
2022/01/16 05:30:40;;;;;;;325.27;64.40;;;2.20;99.90;;;;;;5092928;28;20056;-40
2022/01/16 05:33:05;;;;;;;285.70;60.72;;;2.50;99.90;;;;;;5092799;28;20447;-40
2022/01/16 05:35:31;;;;;;;305.13;62.60;;;2.20;99.90;;;;;;5092497;28;20051;-39
2022/01/16 05:37:56;;;;;;;313.25;62.97;;;2.00;99.90;;;;;;5090792;28;20055;-40
2022/01/16 05:40:22;;;;;;;331.67;68.25;;;2.20;99.90;;;;;;5092556;28;20508;-39
2022/01/16 05:42:48;;;;;;;303.40;65.22;;;2.20;99.90;;;;;;5092813;28;20032;-39
2022/01/16 05:45:13;;;;;;;296.80;62.63;;;2.20;99.90;;;;;;5092244;28;20040;-39
2022/01/16 05:47:39;;;;;;;310.98;63.28;;;2.30;99.90;;;;;;5092389;28;20036;-40
2022/01/16 05:50:05;;;;;;;287.05;63.28;;;2.40;99.90;;;;;;5092321;28;20447;-40
2022/01/16 05:52:31;;;;;;;296.58;61.53;;;2.20;99.90;;;;;;5092492;28;20055;-40
2022/01/16 05:54:57;;;;;;;304.77;64.95;;;2.40;99.90;;;;;;5092628;28;20487;-40
2022/01/16 05:57:22;;;;;;;289.67;63.50;;;2.30;99.90;;;;;;5092104;28;20071;-40
2022/01/16 05:59:48;;;;;;;295.35;65.15;;;2.50;99.90;;;;;;5092444;28;20043;-40
2022/01/16 06:02:14;;;;;;;273.42;63.58;;;2.40;99.90;;;;;;5092526;28;20052;-41
2022/01/16 06:04:39;;;;;;;261.73;56.35;;;2.40;99.90;;;;;;5092598;28;20520;-39
2022/01/16 06:07:06;;;;;;;274.88;61.00;;;2.40;99.90;;;;;;5092388;28;20123;-39
2022/01/16 06:09:32;;;;;;;281.90;63.35;;;2.40;99.90;;;;;;5091946;28;20052;-40
2022/01/16 06:11:58;;;;;;;256.02;60.35;;;2.40;99.90;;;;;;5092232;28;20117;-40
2022/01/16 06:14:24;;;;;;;280.73;62.53;;;2.40;99.90;;;;;;5092073;28;20124;-40
2022/01/16 06:16:53;;;;;;;248.98;56.97;;;2.50;99.90;;;;;;5092129;28;20036;-40
2022/01/16 06:19:19;;;;;;;255.85;61.22;;;2.50;99.90;;;;;;5091791;28;20078;-40
2022/01/16 06:21:46;;;;;;;256.52;59.03;;;2.60;99.90;;;;;;5091865;28;20507;-40
2022/01/16 06:24:12;;;;;;;275.80;63.78;;;2.60;99.90;;;;;;5092070;28;20448;-39
2022/01/16 06:26:38;;;;;;;250.75;59.72;;;2.50;99.90;;;;;;5091699;28;20097;-39
2022/01/16 06:29:04;;;;;;;230.07;54.20;;;2.80;99.90;;;;;;5091841;28;20040;-40
2022/01/16 06:31:31;;;;;;;257.55;59.15;;;2.70;99.90;;;;;;5091985;28;20036;-40
2022/01/16 06:33:59;;;;;;;253.38;59.97;;;2.60;99.90;;;;;;5092135;28;20114;-39
2022/01/16 06:36:25;;;;;;;272.42;63.13;;;2.60;99.90;;;;;;5091790;28;20046;-40
2022/01/16 06:38:53;;;;;;;261.92;62.60;;;2.70;99.90;;;;;;5089552;28;20478;-40
2022/01/16 06:41:18;;;;;;;238.18;58.75;;;2.60;99.90;;;;;;5091793;28;20101;-40
2022/01/16 06:43:44;;;;;;;255.30;62.38;;;2.70;99.90;;;;;;5091693;28;20439;-40
2022/01/16 06:46:10;;;;;;;262.73;60.20;;;2.70;99.90;;;;;;5091621;28;20036;-40
2022/01/16 06:48:36;;;;;;;254.73;58.70;;;2.70;99.90;;;;;;5091482;28;20477;-40
2022/01/16 06:51:02;;;;;;;239.38;57.17;;;2.70;99.90;;;;;;5091205;28;20040;-40
2022/01/16 06:53:28;;;;;;;252.23;61.60;;;2.80;99.90;;;;;;5091084;28;20444;-40
2022/01/16 06:55:53;;;;;;;239.55;59.05;;;3.40;99.90;;;;;;5089456;28;20040;-40
2022/01/16 06:58:19;;;;;;;243.65;57.55;;;2.70;99.90;;;;;;5091229;28;20044;-40
2022/01/16 07:00:46;;;;;;;269.02;63.35;;;2.80;99.90;;;;;;5091041;28;20504;-40
2022/01/16 07:03:13;;;;;;;232.65;59.25;;;2.90;99.90;;;;;;5091326;28;20044;-40
2022/01/16 07:05:42;;;;;;;264.55;63.65;;;2.70;99.90;;;;;;5090912;28;20079;-40
2022/01/16 07:08:08;;;;;;;254.35;62.45;;;2.70;99.90;;;;;;5090934;28;20052;-40
2022/01/16 07:10:34;;;;;;;263.88;63.75;;;3.00;99.90;;;;;;5090993;28;20547;-39
2022/01/16 07:13:00;;;;;;;267.70;62.80;;;2.80;99.90;;;;;;5089767;28;20477;-40
2022/01/16 07:15:25;;;;;;;239.68;60.83;;;2.90;99.90;;;;;;5091014;28;20051;-39
2022/01/16 07:17:51;;;;;;;267.52;64.55;;;2.90;99.90;;;;;;5090718;28;20532;-39
2022/01/16 07:20:17;;;;;;;233.60;56.88;;;3.00;99.90;;;;;;5090717;28;20047;-39
2022/01/16 07:22:44;;;;;;;247.40;60.78;;;3.40;99.90;;;;;;5090640;28;20036;-39
2022/01/16 07:25:11;;;;;;;245.32;57.67;;;2.90;99.90;;;;;;5090857;28;20115;-39
2022/01/16 07:27:36;;;;;;;257.38;59.97;;;2.80;99.90;;;;;;5090631;28;20048;-39
2022/01/16 07:30:03;;;;;;;265.48;61.72;;;2.90;99.90;;;;;;5090727;28;20043;-39
2022/01/16 07:32:29;;;;;;;272.60;65.70;;;2.90;99.90;;;;;;5090624;28;20047;-40
2022/01/16 07:34:54;;;;;;;240.98;58.53;;;3.30;99.90;;;;;;5090520;28;20063;-39
2022/01/16 07:37:20;;;;;;;221.65;55.30;;;3.10;99.90;;;;;;5088886;28;20437;-41
2022/01/16 07:39:46;;;;;;;241.45;61.22;;;3.20;99.90;;;;;;5089831;28;20040;-40
2022/01/16 07:42:12;;;;;;;241.95;61.00;;;3.20;99.90;;;;;;5090503;28;20043;-40
2022/01/16 07:44:38;;;;;;;267.23;64.60;;;3.20;99.90;;;;;;5090327;28;20051;-40
2022/01/16 07:47:04;;;;;;;245.23;58.35;;;3.20;99.90;;;;;;5090704;28;20043;-40
2022/01/16 07:49:30;;;;;;;228.48;58.50;;;3.10;99.90;;;;;;5080076;28;20032;-40
2022/01/16 07:51:55;;;;;;;259.13;62.00;;;3.10;99.90;;;;;;5080167;28;20043;-41
2022/01/16 07:54:21;;;;;;;239.55;58.42;;;3.10;99.90;;;;;;5079209;28;20046;-40
2022/01/16 07:56:47;;;;;;;252.05;63.97;;;3.30;99.90;;;;;;5078086;28;20127;-40
2022/01/16 07:59:13;;;;;;;243.88;60.97;;;3.30;99.90;;;;;;5080644;28;20062;-40
2022/01/16 08:01:39;;;;;;;254.10;61.47;;;4.00;99.90;;;;;;5082466;28;20044;-40
2022/01/16 08:04:05;;;;;;;257.85;65.25;;;3.40;99.90;;;;;;5086010;28;20058;-41
2022/01/16 08:06:31;;;;;;;260.67;63.85;;;3.40;99.90;;;;;;5075102;28;20040;-40
2022/01/16 08:08:56;;;;;;;229.50;62.20;;;3.40;99.90;;;;;;5076396;28;20058;-40
2022/01/16 08:11:23;;;;;;;244.52;64.38;;;3.60;99.90;;;;;;5089988;28;20043;-41
2022/01/16 08:13:48;;;;;;;230.30;60.67;;;3.50;99.90;;;;;;5078363;28;20068;-41
2022/01/16 08:16:14;;;;;;;238.13;63.00;;;3.50;99.90;;;;;;5083275;28;20524;-40
2022/01/16 08:18:40;;;;;;;237.20;63.40;;;3.50;99.90;;;;;;5082209;28;20036;-40
2022/01/16 08:21:06;;;;;;;245.93;65.45;;;3.50;99.90;;;;;;5084906;28;20434;-41
2022/01/16 08:23:32;;;;;;;246.32;68.13;;;3.70;99.90;;;;;;5083090;28;20032;-40
2022/01/16 08:25:58;;;;;;;233.68;61.75;;;3.50;99.90;;;;;;5083672;28;20069;-40
2022/01/16 08:28:24;;;;;;;233.75;63.42;;;3.70;99.90;;;;;;5083555;28;20647;-40
2022/01/16 08:30:50;;;;;;;220.48;62.03;;;3.70;99.90;;;;;;5081087;28;20110;-42
2022/01/16 08:33:16;;;;;;;222.85;62.50;;;3.70;99.90;;;;;;5085839;28;20097;-41
2022/01/16 08:35:42;;;;;;;221.10;63.92;;;3.80;99.90;;;;;;5086475;28;20040;-41
2022/01/16 08:38:07;;;;;;;226.07;65.65;;;3.90;99.90;;;;;;5079438;28;20497;-41
2022/01/16 08:40:33;;;;;;;210.68;64.60;;;4.60;99.90;;;;;;5086211;28;20051;-40
2022/01/16 08:43:03;;;;;;;202.68;61.80;;;4.10;99.90;;;;;;5083200;28;20482;-42
2022/01/16 08:45:28;;;;;;;219.43;64.78;;;4.00;99.90;;;;;;5086810;28;20051;-40
2022/01/16 08:47:54;;;;;;;204.32;63.38;;;4.00;99.90;;;;;;5088543;28;20040;-44
2022/01/16 08:50:20;;;;;;;206.13;65.18;;;4.20;99.90;;;;;;5089221;28;20084;-41
2022/01/16 08:52:45;;;;;;;204.57;63.65;;;4.20;99.90;;;;;;5088963;28;20047;-40
2022/01/16 08:55:12;;;;;;;186.10;62.95;;;4.30;99.90;;;;;;5085993;28;20395;-40
2022/01/16 08:57:38;;;;;;;207.10;68.93;;;4.30;99.90;;;;;;5081790;28;20458;-40
2022/01/16 09:00:09;;;;;;;204.05;62.78;;;4.30;99.90;;;;;;5083200;28;20042;-40
2022/01/16 09:02:35;;;;;;;185.40;65.50;;;4.20;99.90;;;;;;5082672;28;20045;-40
2022/01/16 09:05:02;;;;;;;182.63;65.45;;;4.50;99.90;;;;;;5085023;28;20042;-40
2022/01/16 09:07:28;;;;;;;192.57;62.92;;;4.30;99.90;;;;;;5080385;28;20397;-40
2022/01/16 09:09:56;;;;;;;194.18;64.35;;;4.70;99.90;;;;;;5084302;28;20048;-40
2022/01/16 09:12:23;;;;;;;186.95;63.80;;;4.50;99.90;;;;;;5083746;28;20140;-40
2022/01/16 09:14:49;;;;;;;195.82;65.13;;;5.20;99.90;;;;;;5080781;28;20044;-40
2022/01/16 09:17:14;;;;;;;178.70;62.53;;;4.50;99.90;;;;;;5080900;28;20105;-40
2022/01/16 09:19:42;;;;;;;173.65;61.17;;;4.50;99.90;;;;;;5084314;28;20033;-40
2022/01/16 09:22:08;;;;;;;173.27;64.53;;;4.40;99.90;;;;;;5082340;28;20051;-40
2022/01/16 09:24:34;;;;;;;154.02;58.60;;;4.70;99.90;;;;;;5082547;28;20042;-40
2022/01/16 09:27:00;;;;;;;159.68;59.97;;;5.40;99.90;;;;;;5085423;28;20107;-40
2022/01/16 09:29:26;;;;;;;172.82;58.58;;;4.80;99.90;;;;;;5083912;28;20071;-41
2022/01/16 09:31:51;;;;;;;152.35;57.33;;;4.70;99.90;;;;;;5081528;28;20063;-40
2022/01/16 09:34:17;;;;;;;160.07;61.95;;;4.90;99.90;;;;;;5082712;28;20641;-41
2022/01/16 09:36:43;;;;;;;150.60;59.55;;;4.90;99.90;;;;;;5083260;28;20051;-40
2022/01/16 09:39:09;;;;;;;140.18;57.72;;;5.00;99.90;;;;;;5083045;28;20490;-40
2022/01/16 09:41:35;;;;;;;146.13;56.08;;;5.00;99.90;;;;;;5089723;28;20044;-40
2022/01/16 09:44:02;;;;;;;150.45;59.78;;;5.10;99.90;;;;;;5092496;28;20043;-40
2022/01/16 09:46:27;;;;;;;133.80;55.17;;;5.20;99.90;;;;;;5092440;28;20123;-40
2022/01/16 09:48:53;;;;;;;137.00;57.90;;;5.20;99.90;;;;;;5081315;28;20128;-41
2022/01/16 09:51:19;;;;;;;130.65;56.03;;;5.60;99.90;;;;;;5082901;28;20044;-40
2022/01/16 09:53:46;;;;;;;136.23;54.95;;;5.20;99.90;;;;;;5082224;28;20486;-41
2022/01/16 09:56:13;;;;;;;133.43;56.22;;;5.10;99.90;;;;;;5080915;28;20044;-41
2022/01/16 09:58:39;;;;;;;118.32;53.38;;;5.40;99.90;;;;;;5082858;28;20051;-40
2022/01/16 10:01:05;;;;;;;127.75;54.90;;;5.30;99.90;;;;;;5078103;28;20040;-41
2022/01/16 10:03:33;;;;;;;112.38;48.65;;;5.40;99.90;;;;;;5084034;28;20375;-40
2022/01/16 10:06:11;;;;;;;118.43;53.22;;;5.30;99.90;;;;;;5080884;28;20476;-44
2022/01/16 10:08:39;;;;;;;118.35;49.53;;;5.30;99.90;;;;;;5080991;28;20131;-40
2022/01/16 10:11:39;;;;;;;107.10;50.33;;;5.40;99.90;;;;;;5072845;28;20055;-41
2022/01/16 10:14:15;;;;;;;102.70;49.30;;;5.40;99.90;;;;;;5082310;28;20490;-41
2022/01/16 10:16:43;;;;;;;106.28;50.05;;;5.40;99.90;;;;;;5082414;28;20402;-41
2022/01/16 10:19:26;;;;;;;112.50;50.53;;;5.40;99.90;;;;;;5080109;28;20110;-41
2022/01/16 10:21:53;;;;;;;97.82;48.75;;;5.40;99.90;;;;;;5071677;28;20115;-41
2022/01/16 10:24:23;;;;;;;98.25;50.53;;;5.70;99.90;;;;;;5072213;28;20549;-41
2022/01/16 10:27:08;;;;;;;96.63;50.55;;;5.50;99.90;;;;;;5071395;28;20051;-41
2022/01/16 10:29:51;;;;;;;99.75;47.35;;;5.50;99.90;;;;;;5076024;28;20093;-41
2022/01/16 10:32:17;;;;;;;91.10;46.53;;;5.80;99.90;;;;;;5090340;28;20040;-40
2022/01/16 10:34:44;;;;;;;94.03;48.53;;;5.90;99.90;;;;;;5091973;28;20169;-40
2022/01/16 10:37:30;;;;;;;95.95;45.72;;;5.80;99.90;;;;;;5091174;28;20047;-41
2022/01/16 10:40:09;;;;;;;87.82;45.45;;;5.90;99.90;;;;;;5050669;28;20040;-40
2022/01/16 10:42:36;;;;;;;95.35;46.47;;;5.60;99.90;;;;;;5051114;28;20068;-40
2022/01/16 10:45:11;;;;;;;83.15;41.08;;;5.80;99.90;;;;;;5051357;28;20033;-40
2022/01/16 10:47:41;;;;;;;82.53;42.38;;;5.70;99.90;;;;;;5051460;28;20041;-40
2022/01/16 10:50:12;;;;;;;78.75;42.60;;;5.90;99.90;;;;;;5051178;28;20036;-40
2022/01/16 10:52:52;;;;;;;79.35;41.63;;;5.80;99.90;;;;;;5050952;28;20053;-40
2022/01/16 10:55:19;;;;;;;75.97;39.42;;;5.70;99.90;;;;;;5055372;28;20085;-41
2022/01/16 10:57:45;;;;;;;68.68;38.30;;;5.80;99.90;;;;;;5080634;28;20047;-40
2022/01/16 11:00:19;;;;;;;76.20;41.38;;;5.90;99.90;;;;;;5078337;28;20090;-40
2022/01/16 11:02:47;;;;;;;70.07;38.42;;;5.80;99.90;;;;;;5082260;28;20044;-40
2022/01/16 11:05:17;;;;;;;68.03;36.25;;;6.00;99.90;;;;;;5080833;28;20033;-41
2022/01/16 11:07:44;;;;;;;77.65;39.50;;;5.80;99.90;;;;;;5082778;28;20052;-40
2022/01/16 11:10:21;;;;;;;69.47;37.25;;;5.80;99.90;;;;;;5080692;28;20363;-40
2022/01/16 11:12:49;;;;;;;68.40;36.97;;;6.80;99.90;;;;;;5083167;28;20040;-41
2022/01/16 11:15:15;;;;;;;58.20;34.00;;;6.00;99.90;;;;;;5091683;28;20051;-40
2022/01/16 11:17:41;;;;;;;62.83;35.17;;;6.20;99.90;;;;;;5091394;28;20047;-40
2022/01/16 11:20:08;;;;;;;64.75;35.55;;;6.00;99.90;;;;;;5090959;28;20036;-40
2022/01/16 11:22:57;;;;;;;70.03;33.78;;;5.90;99.90;;;;;;5091176;28;20072;-41
2022/01/16 11:25:30;;;;;;;62.53;33.45;;;6.40;99.90;;;;;;5090536;28;20052;-41
2022/01/16 11:28:01;;;;;;;62.58;33.47;;;6.30;99.90;;;;;;5090764;28;20497;-40
2022/01/16 11:30:28;;;;;;;59.47;32.00;;;5.90;99.90;;;;;;5090945;28;20114;-40
2022/01/16 11:32:56;;;;;;;63.30;31.73;;;6.00;99.90;;;;;;5090851;28;20047;-40
2022/01/16 11:35:22;;;;;;;62.92;32.20;;;6.00;99.90;;;;;;5090541;28;20117;-40
2022/01/16 11:37:48;;;;;;;60.60;31.75;;;6.20;99.90;;;;;;5087520;28;20043;-40
2022/01/16 11:40:28;;;;;;;65.35;31.23;;;6.00;99.90;;;;;;5090166;28;20048;-40
2022/01/16 11:43:23;;;;;;;57.05;30.77;;;6.00;99.90;;;;;;5090211;28;20071;-40
2022/01/16 11:46:16;;;;;;;58.90;30.83;;;5.80;99.90;;;;;;5085527;28;20041;-40
2022/01/16 11:48:47;;;;;;;55.53;28.23;;;5.70;99.90;;;;;;5066640;28;20048;-41
2022/01/16 11:51:41;;;;;;;50.90;27.70;;;5.80;99.90;;;;;;5069617;28;20128;-41
2022/01/16 11:54:20;;;;;;;49.28;25.75;;;5.90;99.90;;;;;;5070118;28;20094;-41
2022/01/16 11:56:45;;;;;;;47.08;24.05;;;6.00;99.90;;;;;;5070282;28;20120;-41
2022/01/16 11:59:21;;;;;;;48.97;24.25;;;6.30;99.90;;;;;;5070055;28;20119;-40
2022/01/16 12:01:59;;;;;;;39.40;21.35;;;7.00;99.90;;;;;;5070190;28;20063;-40
2022/01/16 12:04:31;;;;;;;46.53;21.10;;;6.00;99.90;;;;;;5070020;28;20079;-40
2022/01/16 12:07:19;;;;;;;37.75;19.33;;;6.30;99.90;;;;;;5070377;28;20048;-41
2022/01/16 12:12:14;;;;;;;37.20;18.30;;;6.30;99.90;;;;;;5069872;28;20048;-40
2022/01/16 12:15:02;;;;;;;33.08;17.80;;;6.00;99.90;;;;;;5070127;28;20041;-40
2022/01/16 12:17:27;;;;;;;37.92;19.35;;;6.00;99.90;;;;;;5070291;28;20133;-40
2022/01/16 12:20:13;;;;;;;39.47;18.85;;;6.00;99.90;;;;;;5069806;28;20133;-40
2022/01/16 12:22:53;;;;;;;36.50;18.10;;;6.00;99.90;;;;;;5070114;28;20048;-40
2022/01/16 12:25:42;;;;;;;29.45;16.33;;;6.80;99.90;;;;;;5069909;28;20503;-40
2022/01/16 12:28:11;;;;;;;34.15;16.80;;;6.00;99.90;;;;;;5070018;28;20033;-40
2022/01/16 12:30:58;;;;;;;31.38;15.30;;;6.80;99.90;;;;;;5069871;28;20040;-40
2022/01/16 12:33:28;;;;;;;32.75;16.38;;;6.10;99.90;;;;;;5074852;28;20040;-40
2022/01/16 12:35:55;;;;;;;24.58;15.10;;;6.10;99.90;;;;;;5080921;28;20359;-40
2022/01/16 12:38:25;;;;;;;37.03;14.48;;;6.40;99.90;;;;;;5079015;28;20047;-40
2022/01/16 12:40:52;;;;;;;34.13;15.48;;;6.70;99.90;;;;;;5078277;28;20128;-40
2022/01/16 12:43:28;;;;;;;30.73;14.80;;;6.50;99.90;;;;;;5079098;28;20059;-40
2022/01/16 12:45:55;;;;;;;31.00;14.70;;;6.30;99.90;;;;;;5079207;28;20072;-41
2022/01/16 12:48:21;;;;;;;28.67;14.80;;;6.50;99.90;;;;;;5078920;28;20389;-40
2022/01/16 12:50:47;;;;;;;29.42;13.23;;;6.40;99.90;;;;;;5080673;28;20397;-41
2022/01/16 12:53:13;;;;;;;25.23;12.85;;;6.10;99.90;;;;;;5078569;28;20036;-40
2022/01/16 12:55:39;;;;;;;32.78;15.50;;;6.50;99.90;;;;;;5081673;28;20105;-40
2022/01/16 12:58:18;;;;;;;34.35;18.17;;;6.10;99.90;;;;;;5083845;28;20044;-41
2022/01/16 13:00:57;;;;;;;33.05;16.65;;;6.20;99.90;;;;;;5083732;28;20043;-40
2022/01/16 13:03:27;;;;;;;30.80;16.55;;;7.00;99.90;;;;;;5083446;28;20056;-40
2022/01/16 13:06:18;;;;;;;43.67;18.38;;;6.30;99.90;;;;;;5084053;28;20075;-40
2022/01/16 13:08:51;;;;;;;31.25;17.20;;;6.20;99.90;;;;;;5084794;28;20505;-40
2022/01/16 13:11:17;;;;;;;29.67;15.52;;;6.70;99.90;;;;;;5084661;28;20444;-40
2022/01/16 13:13:43;;;;;;;28.10;15.13;;;6.50;99.90;;;;;;5083223;28;20079;-40
2022/01/16 13:16:29;;;;;;;28.83;14.60;;;6.50;99.90;;;;;;5085149;28;20036;-41
2022/01/16 13:19:22;;;;;;;29.85;13.68;;;6.20;99.90;;;;;;5079826;28;20033;-40
2022/01/16 13:22:05;;;;;;;23.17;11.35;;;6.10;99.90;;;;;;5086228;28;20056;-40